Time;durP1;ratioP1;P1;durP2;ratioP2;P2;SDS_P1;SDS_P2;PMS_P1;PMS_P2;Temp;Humidity;BMP_temperature;BMP_pressure;BME280_temperature;BME280_humidity;BME280_pressure;Samples;Min_cycle;Max_cycle;Signal;HPM_P1;HPM_P2
2023/10/30 00:00:58;;;;;;;15.75;7.95;;;;;;;9.80;93.89;100298.16;1822208;78;21126;-70
2023/10/30 00:03:29;;;;;;;15.45;8.33;;;;;;;9.84;93.65;100300.30;1822255;79;21153;-71
2023/10/30 00:05:58;;;;;;;15.98;7.55;;;;;;;9.87;93.34;100298.22;1822313;79;21111;-71
2023/10/30 00:08:28;;;;;;;14.33;7.28;;;;;;;9.91;93.20;100285.84;1822594;79;21103;-72
2023/10/30 00:10:57;;;;;;;14.50;7.87;;;;;;;9.95;92.92;100296.19;1822573;79;21118;-74
2023/10/30 00:13:26;;;;;;;15.88;7.58;;;;;;;9.98;92.50;100307.27;1822735;79;21134;-71
2023/10/30 00:15:55;;;;;;;11.22;7.10;;;;;;;9.97;92.14;100308.31;1822407;79;21197;-72
2023/10/30 00:18:24;;;;;;;13.40;6.90;;;;;;;9.97;91.93;100308.31;1822488;79;21082;-71
2023/10/30 00:20:52;;;;;;;13.83;6.58;;;;;;;9.97;91.81;100306.95;1822399;79;21561;-70
2023/10/30 00:23:21;;;;;;;15.70;7.25;;;;;;;10.01;91.59;100293.19;1822573;79;21560;-71
2023/10/30 00:25:51;;;;;;;14.30;6.97;;;;;;;10.04;91.32;100288.17;1822592;79;21143;-71
2023/10/30 00:28:22;;;;;;;14.60;6.90;;;;;;;10.07;91.05;100292.41;1822561;79;21110;-72
2023/10/30 00:30:53;;;;;;;14.18;6.47;;;;;;;10.10;90.79;100294.22;1822519;79;21141;-72
2023/10/30 00:33:23;;;;;;;11.75;6.37;;;;;;;10.13;90.45;100287.51;1822676;79;21162;-72
2023/10/30 00:35:53;;;;;;;13.25;6.05;;;;;;;10.20;89.99;100291.17;1822501;79;21094;-70
2023/10/30 00:38:22;;;;;;;14.60;6.00;;;;;;;10.30;89.27;100289.47;1822511;79;21603;-71
2023/10/30 00:40:51;;;;;;;13.43;6.08;;;;;;;10.39;88.58;100287.75;1822591;79;21157;-71
2023/10/30 00:43:20;;;;;;;14.28;5.62;;;;;;;10.48;87.31;100287.95;1822753;79;21134;-71
2023/10/30 00:45:49;;;;;;;11.30;5.50;;;;;;;10.63;86.28;100286.99;1822719;79;21157;-72
2023/10/30 00:48:20;;;;;;;11.63;5.55;;;;;;;10.74;85.36;100283.69;1822526;79;21175;-71
2023/10/30 00:50:49;;;;;;;12.88;5.40;;;;;;;10.83;84.54;100287.11;1822559;79;21150;-70
2023/10/30 00:53:19;;;;;;;12.58;5.62;;;;;;;10.89;84.00;100284.94;1822670;79;21108;-70
2023/10/30 00:55:52;;;;;;;10.20;5.50;;;;;;;10.92;83.57;100285.38;1822523;79;21592;-72
2023/10/30 00:58:23;;;;;;;10.70;5.50;;;;;;;10.96;83.02;100287.19;1822540;79;21098;-70
2023/10/30 01:00:51;;;;;;;9.68;5.28;;;;;;;10.99;82.53;100286.25;1822743;79;21182;-71
2023/10/30 01:03:23;;;;;;;14.53;5.17;;;;;;;11.04;81.83;100278.79;1822711;79;21138;-71
2023/10/30 01:06:01;;;;;;;12.43;5.72;;;;;;;11.08;81.45;100285.06;1822434;79;21544;-71
2023/10/30 01:08:30;;;;;;;15.13;5.53;;;;;;;11.11;81.06;100283.28;1822556;79;21141;-70
2023/10/30 01:10:59;;;;;;;11.78;5.75;;;;;;;11.15;80.65;100287.84;1822653;79;21078;-72
2023/10/30 01:13:28;;;;;;;11.60;5.78;;;;;;;11.18;80.22;100282.47;1822564;79;21138;-71
2023/10/30 01:15:57;;;;;;;12.55;5.97;;;;;;;11.19;79.91;100278.15;1822530;79;21103;-71
2023/10/30 01:18:26;;;;;;;10.80;5.90;;;;;;;11.22;79.79;100281.00;1822668;79;21086;-72
2023/10/30 01:20:55;;;;;;;12.00;6.08;;;;;;;11.21;79.55;100280.16;1822661;79;21070;-70
2023/10/30 01:23:24;;;;;;;13.53;5.80;;;;;;;11.22;79.24;100282.38;1797604;79;21130;-72
2023/10/30 01:25:52;;;;;;;11.97;5.67;;;;;;;11.24;79.01;100282.49;1822744;79;21130;-72
2023/10/30 01:28:22;;;;;;;12.85;5.85;;;;;;;11.25;79.09;100277.85;1822789;79;21126;-71
2023/10/30 01:30:51;;;;;;;11.88;5.75;;;;;;;11.25;79.10;100284.71;1822474;79;21126;-71
2023/10/30 01:33:20;;;;;;;13.72;5.92;;;;;;;11.23;79.12;100278.06;1822536;79;21142;-70
2023/10/30 01:35:49;;;;;;;10.15;5.30;;;;;;;11.21;79.01;100272.45;1822484;79;21154;-72
2023/10/30 01:38:17;;;;;;;11.45;5.37;;;;;;;11.21;79.04;100275.20;1822574;79;21102;-71
2023/10/30 01:40:48;;;;;;;14.18;5.83;;;;;;;11.18;79.06;100268.75;1822587;79;21557;-70
2023/10/30 01:43:29;;;;;;;10.80;5.50;;;;;;;11.18;78.79;100276.98;1822545;79;21554;-71
2023/10/30 01:45:58;;;;;;;13.72;6.45;;;;;;;11.18;78.90;100274.24;1822471;79;21638;-72
2023/10/30 01:48:31;;;;;;;13.72;5.40;;;;;;;11.16;79.01;100270.33;1822559;79;21133;-71
2023/10/30 01:51:00;;;;;;;12.75;5.60;;;;;;;11.13;79.15;100275.38;1822507;79;21146;-71
2023/10/30 01:53:31;;;;;;;11.78;5.40;;;;;;;11.11;79.13;100272.31;1797658;79;21134;-71
2023/10/30 01:56:05;;;;;;;10.43;5.60;;;;;;;11.09;79.09;100269.46;1822845;79;21142;-72
2023/10/30 01:58:34;;;;;;;14.13;5.78;;;;;;;11.06;79.21;100269.34;1822640;79;21106;-71
2023/10/30 02:01:04;;;;;;;11.28;5.35;;;;;;;11.02;79.12;100269.39;1822541;79;21146;-70
2023/10/30 02:03:35;;;;;;;11.22;5.67;;;;;;;11.03;79.14;100262.86;1822588;79;21094;-70
2023/10/30 02:06:05;;;;;;;13.00;6.00;;;;;;;11.02;79.06;100257.06;1822447;79;21157;-70
2023/10/30 02:08:36;;;;;;;12.98;5.78;;;;;;;11.04;79.08;100265.08;1822458;79;21627;-70
2023/10/30 02:11:05;;;;;;;13.60;5.58;;;;;;;11.06;79.07;100251.52;1822237;79;21561;-70
2023/10/30 02:13:33;;;;;;;11.48;5.62;;;;;;;11.08;79.01;100256.27;1822199;78;21101;-71
2023/10/30 02:16:04;;;;;;;12.07;6.03;;;;;;;11.11;78.68;100255.86;1822386;79;21158;-71
2023/10/30 02:18:33;;;;;;;13.75;6.05;;;;;;;11.12;78.25;100247.11;1795509;79;21554;-71
2023/10/30 02:21:06;;;;;;;11.48;5.60;;;;;;;11.14;78.16;100251.02;1822446;79;21141;-70
2023/10/30 02:23:35;;;;;;;11.40;5.65;;;;;;;11.15;77.92;100251.34;1822209;79;21189;-70
2023/10/30 02:26:04;;;;;;;11.30;5.50;;;;;;;11.15;77.77;100251.34;1822482;79;21588;-70
2023/10/30 02:28:34;;;;;;;13.28;5.62;;;;;;;11.15;77.87;100250.81;1822317;79;21118;-70
2023/10/30 02:31:04;;;;;;;10.60;5.42;;;;;;;11.14;77.80;100256.50;1822244;79;21142;-71
2023/10/30 02:33:33;;;;;;;15.23;6.40;;;;;;;11.13;77.78;100249.33;1822226;79;21106;-71
2023/10/30 02:36:02;;;;;;;11.55;6.35;;;;;;;11.12;77.82;100252.59;1822177;78;21134;-71
2023/10/30 02:38:31;;;;;;;13.32;6.45;;;;;;;11.10;77.82;100250.06;1822118;78;21145;-72
2023/10/30 02:41:01;;;;;;;20.57;12.68;;;;;;;11.09;77.81;100253.85;1822381;79;21114;-71
2023/10/30 02:43:31;;;;;;;17.30;8.60;;;;;;;11.09;77.66;100251.64;1822229;79;21154;-71
2023/10/30 02:46:01;;;;;;;17.67;10.58;;;;;;;11.07;77.61;100262.81;1822176;79;21573;-72
2023/10/30 02:48:30;;;;;;;14.07;6.80;;;;;;;11.04;77.58;100265.92;1822231;79;21161;-71
2023/10/30 02:51:01;;;;;;;12.25;6.05;;;;;;;11.03;77.70;100264.23;1822383;79;21134;-70
2023/10/30 02:53:29;;;;;;;11.97;5.87;;;;;;;11.02;77.60;100268.02;1822205;79;21526;-71
2023/10/30 02:56:00;;;;;;;12.20;6.12;;;;;;;11.01;77.66;100270.97;1822244;78;21542;-70
2023/10/30 02:58:31;;;;;;;12.88;5.80;;;;;;;11.01;77.57;100267.70;1822531;79;21137;-71
2023/10/30 03:00:59;;;;;;;10.45;5.50;;;;;;;11.00;77.54;100271.50;1822407;79;21113;-70
2023/10/30 03:03:29;;;;;;;11.73;5.83;;;;;;;10.99;77.56;100271.17;1822168;78;21114;-71
2023/10/30 03:05:58;;;;;;;11.18;5.70;;;;;;;10.99;77.47;100264.32;1822257;78;21573;-70
2023/10/30 03:08:27;;;;;;;12.85;5.55;;;;;;;10.97;77.37;100259.56;1822443;79;21108;-71
2023/10/30 03:10:56;;;;;;;11.75;5.45;;;;;;;10.97;77.40;100262.31;1822739;79;21119;-70
2023/10/30 03:13:25;;;;;;;10.45;5.50;;;;;;;10.97;77.29;100248.60;1822471;79;21589;-72
2023/10/30 03:15:56;;;;;;;10.60;5.35;;;;;;;10.97;77.26;100244.48;1822406;79;21734;-71
2023/10/30 03:18:25;;;;;;;11.08;5.37;;;;;;;10.97;77.39;100236.79;1822444;79;21162;-71
2023/10/30 03:20:54;;;;;;;10.95;5.45;;;;;;;10.95;77.35;100242.48;1822601;79;21595;-70
2023/10/30 03:23:24;;;;;;;10.15;5.47;;;;;;;10.94;77.29;100250.37;1822648;79;21193;-71
2023/10/30 03:25:55;;;;;;;12.63;5.37;;;;;;;10.92;77.38;100249.73;1822609;79;21118;-71
2023/10/30 03:28:23;;;;;;;12.40;5.37;;;;;;;10.90;77.52;100255.10;1822402;79;21562;-72
2023/10/30 03:30:53;;;;;;;10.75;5.35;;;;;;;10.87;77.57;100260.47;1822552;79;21110;-70
2023/10/30 03:33:23;;;;;;;10.18;5.40;;;;;;;10.85;77.69;100250.75;1822698;79;21157;-70
2023/10/30 03:35:52;;;;;;;10.65;5.50;;;;;;;10.84;77.73;100255.39;1822479;79;21138;-72
2023/10/30 03:38:21;;;;;;;13.32;5.80;;;;;;;10.83;77.75;100242.73;1822629;79;21541;-71
2023/10/30 03:40:50;;;;;;;9.75;5.03;;;;;;;10.86;77.65;100249.70;1822773;79;21122;-70
2023/10/30 03:43:19;;;;;;;9.78;5.05;;;;;;;10.87;77.62;100249.50;1822569;79;21146;-70
2023/10/30 03:45:49;;;;;;;9.38;5.10;;;;;;;10.87;77.53;100237.69;1822686;79;21118;-72
2023/10/30 03:48:18;;;;;;;11.97;5.60;;;;;;;10.88;77.51;100233.91;1822617;79;21679;-73
2023/10/30 03:50:51;;;;;;;9.85;4.97;;;;;;;10.88;77.55;100234.75;1822748;79;21138;-70
2023/10/30 03:53:20;;;;;;;13.55;5.78;;;;;;;10.90;77.57;100238.13;1822593;79;21570;-72
2023/10/30 03:55:49;;;;;;;9.85;5.40;;;;;;;10.92;77.65;100237.41;1822531;79;21580;-71
2023/10/30 03:58:19;;;;;;;10.20;5.55;;;;;;;10.95;77.63;100237.52;1822566;79;21114;-71
2023/10/30 04:00:48;;;;;;;11.20;5.40;;;;;;;10.95;77.57;100241.11;1822774;79;21106;-72
2023/10/30 04:03:17;;;;;;;9.05;4.78;;;;;;;10.97;77.54;100236.79;1822666;79;21145;-71
2023/10/30 04:05:46;;;;;;;9.58;4.78;;;;;;;10.97;77.59;100234.89;1822467;79;21137;-70
2023/10/30 04:08:16;;;;;;;11.93;5.22;;;;;;;10.98;77.59;100236.58;1814653;78;21098;-70
2023/10/30 04:10:45;;;;;;;10.63;5.60;;;;;;;11.00;77.57;100235.86;1814623;79;21522;-71
2023/10/30 04:13:14;;;;;;;12.25;5.62;;;;;;;11.01;77.57;100235.33;1814486;79;21146;-71
2023/10/30 04:15:43;;;;;;;10.90;5.22;;;;;;;11.01;77.50;100229.32;1814578;79;21573;-69
2023/10/30 04:18:12;;;;;;;11.33;5.25;;;;;;;11.02;77.46;100219.20;1814495;79;21396;-71
2023/10/30 04:20:42;;;;;;;10.85;5.20;;;;;;;11.05;77.37;100229.76;1814687;78;21185;-71
2023/10/30 04:23:12;;;;;;;9.90;5.03;;;;;;;11.04;77.20;100224.80;1814776;78;21169;-72
2023/10/30 04:25:40;;;;;;;10.45;5.20;;;;;;;11.04;77.02;100234.39;1814824;79;21169;-70
2023/10/30 04:28:10;;;;;;;9.75;4.75;;;;;;;11.04;76.93;100233.02;1814772;79;21162;-70
2023/10/30 04:30:39;;;;;;;12.13;5.03;;;;;;;11.06;76.89;100235.59;1814545;79;21119;-71
2023/10/30 04:33:09;;;;;;;11.70;5.35;;;;;;;11.04;76.81;100240.41;1814639;79;21557;-72
2023/10/30 04:35:38;;;;;;;12.43;6.42;;;;;;;11.06;76.88;100230.95;1814580;79;21151;-71
2023/10/30 04:38:07;;;;;;;10.85;5.70;;;;;;;11.04;76.89;100224.80;1814496;79;21150;-72
2023/10/30 04:40:36;;;;;;;11.10;5.20;;;;;;;11.03;77.06;100220.89;1814550;79;21115;-72
2023/10/30 04:43:06;;;;;;;11.22;5.42;;;;;;;11.02;77.10;100222.79;1814620;78;21138;-73
2023/10/30 04:45:34;;;;;;;12.45;6.37;;;;;;;11.01;77.00;100213.40;1814639;79;21134;-71
2023/10/30 04:48:04;;;;;;;11.05;5.37;;;;;;;11.00;76.95;100216.66;1814675;79;21650;-71
2023/10/30 04:50:33;;;;;;;11.33;5.53;;;;;;;10.99;77.03;100216.34;1814493;79;21218;-71
2023/10/30 04:53:02;;;;;;;12.03;5.15;;;;;;;10.99;77.24;100210.86;1814532;79;21149;-69
2023/10/30 04:55:31;;;;;;;13.35;4.90;;;;;;;11.01;77.34;100217.52;1814701;79;21188;-70
2023/10/30 04:58:01;;;;;;;8.55;5.03;;;;;;;11.01;77.24;100221.09;1814465;79;21161;-72
2023/10/30 05:00:30;;;;;;;12.78;5.22;;;;;;;11.01;76.98;100206.02;1814646;79;21178;-71
2023/10/30 05:03:00;;;;;;;11.90;4.90;;;;;;;11.02;76.85;100210.45;1814713;79;21107;-71
2023/10/30 05:05:30;;;;;;;10.53;5.00;;;;;;;11.03;76.71;100208.03;1814399;79;21558;-71
2023/10/30 05:07:59;;;;;;;8.35;4.83;;;;;;;11.03;76.73;100211.30;1814239;79;21154;-69
2023/10/30 05:10:27;;;;;;;10.95;4.85;;;;;;;11.02;76.73;100207.71;1814481;79;21574;-72
2023/10/30 05:12:57;;;;;;;12.78;5.50;;;;;;;11.02;76.81;100208.23;1814469;78;21751;-72
2023/10/30 05:15:26;;;;;;;13.15;5.10;;;;;;;11.03;76.72;100217.63;1814675;79;21526;-71
2023/10/30 05:17:54;;;;;;;9.73;5.30;;;;;;;11.02;76.70;100214.56;1814288;79;21588;-71
2023/10/30 05:20:23;;;;;;;9.35;4.95;;;;;;;11.04;76.62;100211.62;1814415;79;21130;-72
2023/10/30 05:22:52;;;;;;;9.45;5.35;;;;;;;11.04;76.58;100220.69;1814519;79;21146;-72
2023/10/30 05:25:22;;;;;;;9.38;5.00;;;;;;;11.04;76.65;100211.09;1814525;79;21170;-70
2023/10/30 05:27:53;;;;;;;10.20;5.30;;;;;;;11.05;76.67;100221.53;1811759;79;21199;-71
2023/10/30 05:30:21;;;;;;;7.62;4.70;;;;;;;11.06;76.57;100216.41;1814574;79;21142;-72
2023/10/30 05:32:50;;;;;;;11.78;5.62;;;;;;;11.08;76.57;100215.14;1814699;79;21150;-71
2023/10/30 05:35:20;;;;;;;12.58;5.03;;;;;;;11.13;76.51;100215.90;1814395;79;21154;-73
2023/10/30 05:37:51;;;;;;;13.00;5.58;;;;;;;11.16;76.29;100215.48;1814254;78;21165;-72
2023/10/30 05:40:23;;;;;;;10.10;5.10;;;;;;;11.16;76.15;100210.53;1814513;79;21243;-72
2023/10/30 05:42:51;;;;;;;7.50;4.50;;;;;;;11.18;76.28;100213.91;1814482;79;21127;-72
2023/10/30 05:45:20;;;;;;;10.28;5.15;;;;;;;11.20;76.23;100220.88;1814414;79;21639;-72
2023/10/30 05:47:49;;;;;;;12.37;5.70;;;;;;;11.22;76.01;100220.67;1814631;79;21116;-71
2023/10/30 05:50:18;;;;;;;11.73;5.37;;;;;;;11.23;76.01;100224.58;1814470;78;21118;-72
2023/10/30 05:52:47;;;;;;;16.20;5.92;;;;;;;11.25;76.05;100228.48;1814721;79;21119;-71
2023/10/30 05:55:16;;;;;;;11.08;5.60;;;;;;;11.24;76.09;100229.02;1814663;78;21153;-72
2023/10/30 05:57:45;;;;;;;11.00;5.22;;;;;;;11.27;76.32;100230.50;1814615;78;21149;-73
2023/10/30 06:00:15;;;;;;;10.18;5.62;;;;;;;11.29;76.27;100226.50;1814523;79;21592;-71
2023/10/30 06:02:43;;;;;;;9.58;5.75;;;;;;;11.30;76.35;100220.48;1814628;79;21107;-72
2023/10/30 06:05:14;;;;;;;13.35;6.20;;;;;;;11.30;76.62;100228.19;1814622;79;21110;-72
2023/10/30 06:07:45;;;;;;;10.05;5.72;;;;;;;11.32;76.62;100232.09;1818341;79;21161;-72
2023/10/30 06:10:19;;;;;;;10.25;5.53;;;;;;;11.33;76.65;100222.81;1822206;79;21141;-72
2023/10/30 06:12:47;;;;;;;9.53;5.50;;;;;;;11.34;77.00;100228.09;1822225;79;21095;-70
2023/10/30 06:15:17;;;;;;;14.70;6.22;;;;;;;11.38;77.07;100229.89;1822322;79;21554;-71
2023/10/30 06:17:46;;;;;;;11.22;5.85;;;;;;;11.43;76.94;100238.34;1822366;78;21106;-72
2023/10/30 06:20:16;;;;;;;14.00;5.45;;;;;;;11.49;76.89;100232.03;1822264;79;21141;-72
2023/10/30 06:22:47;;;;;;;9.88;5.53;;;;;;;11.55;76.33;100231.20;1822407;79;21133;-72
2023/10/30 06:25:16;;;;;;;10.53;5.17;;;;;;;11.63;75.87;100223.30;1822251;78;21367;-71
2023/10/30 06:27:47;;;;;;;13.08;4.95;;;;;;;11.70;75.62;100225.02;1822080;79;21566;-71
2023/10/30 06:30:17;;;;;;;9.83;4.85;;;;;;;11.76;75.09;100219.22;1822316;78;21087;-71
2023/10/30 06:32:46;;;;;;;12.93;5.03;;;;;;;11.83;74.85;100222.84;1822123;79;21095;-72
2023/10/30 06:35:15;;;;;;;13.08;5.05;;;;;;;11.90;74.37;100224.22;1822304;79;21110;-70
2023/10/30 06:37:44;;;;;;;9.08;4.62;;;;;;;11.96;74.16;100229.72;1822365;79;21576;-76
2023/10/30 06:40:13;;;;;;;9.95;4.37;;;;;;;12.02;74.06;100222.00;1822229;79;21107;-71
2023/10/30 06:42:41;;;;;;;11.88;5.15;;;;;;;12.10;73.48;100225.06;1822187;79;21553;-72
2023/10/30 06:45:11;;;;;;;10.58;4.95;;;;;;;12.18;73.17;100219.36;1822177;79;21694;-71
2023/10/30 06:47:40;;;;;;;10.15;4.65;;;;;;;12.25;72.90;100214.70;1822151;79;21122;-71
2023/10/30 06:50:09;;;;;;;11.40;5.20;;;;;;;12.32;72.54;100224.31;1822474;79;21106;-73
2023/10/30 06:52:39;;;;;;;11.05;4.55;;;;;;;12.38;72.38;100222.11;1822143;79;21110;-71
2023/10/30 06:55:09;;;;;;;9.05;5.15;;;;;;;12.45;72.15;100226.22;1822093;79;21107;-71
2023/10/30 06:57:38;;;;;;;12.35;5.05;;;;;;;12.49;72.13;100205.50;1822279;78;21110;-72
2023/10/30 07:00:09;;;;;;;16.77;5.12;;;;;;;12.54;72.04;100220.81;1822140;79;21570;-74
2023/10/30 07:02:40;;;;;;;10.88;5.28;;;;;;;12.59;71.57;100212.23;1822115;79;21082;-72
2023/10/30 07:05:09;;;;;;;13.03;5.70;;;;;;;12.62;71.19;100211.80;1822074;79;21110;-72
2023/10/30 07:07:38;;;;;;;13.18;5.65;;;;;;;12.68;71.14;100219.72;1822018;79;21098;-70
2023/10/30 07:10:08;;;;;;;11.90;5.35;;;;;;;12.72;71.26;100218.75;1822382;79;21593;-71
2023/10/30 07:12:37;;;;;;;12.43;5.30;;;;;;;12.76;71.28;100220.01;1822519;79;21118;-73
2023/10/30 07:15:07;;;;;;;8.95;4.53;;;;;;;12.79;71.12;100219.58;1822540;79;21154;-72
2023/10/30 07:17:35;;;;;;;13.08;4.90;;;;;;;12.82;70.82;100215.86;1822630;79;21107;-71
2023/10/30 07:20:06;;;;;;;8.88;4.78;;;;;;;12.88;70.60;100214.15;1822633;79;21596;-73
2023/10/30 07:22:36;;;;;;;12.88;5.47;;;;;;;12.92;70.33;100213.50;1822324;79;21588;-73
2023/10/30 07:25:07;;;;;;;9.53;4.70;;;;;;;12.98;70.33;100215.38;1822435;79;21597;-71
2023/10/30 07:27:36;;;;;;;11.73;5.00;;;;;;;13.06;69.90;100212.09;1822350;79;21102;-71
2023/10/30 07:30:12;;;;;;;11.80;5.00;;;;;;;13.14;69.87;100220.09;1822374;79;21627;-71
2023/10/30 07:32:40;;;;;;;9.70;5.12;;;;;;;13.22;69.73;100217.97;1822734;79;22000;-71
2023/10/30 07:35:10;;;;;;;11.50;5.25;;;;;;;13.37;69.62;100213.55;1822741;79;21268;-72
2023/10/30 07:37:41;;;;;;;12.23;5.03;;;;;;;13.48;69.07;100211.47;1822517;79;21102;-72
2023/10/30 07:40:11;;;;;;;8.50;4.60;;;;;;;13.56;68.64;100216.71;1822375;79;21553;-72
2023/10/30 07:42:40;;;;;;;13.28;5.33;;;;;;;13.61;68.39;100208.62;1822408;79;21161;-72
2023/10/30 07:45:16;;;;;;;8.88;4.80;;;;;;;13.67;68.31;100211.59;1822695;79;21558;-72
2023/10/30 07:47:45;;;;;;;14.83;5.08;;;;;;;13.72;68.14;100211.77;1790257;80;21118;-72
2023/10/30 07:50:18;;;;;;;8.80;4.45;;;;;;;13.75;68.01;100207.19;1790332;80;21122;-72
2023/10/30 07:52:51;;;;;;;12.40;4.90;;;;;;;13.80;68.02;100217.00;1790462;80;21114;-72
2023/10/30 07:55:21;;;;;;;9.85;4.33;;;;;;;13.85;67.78;100211.66;1790253;80;21122;-73
2023/10/30 07:57:51;;;;;;;9.53;4.50;;;;;;;13.89;67.54;100212.38;1790384;80;21157;-73
2023/10/30 08:00:21;;;;;;;7.10;4.35;;;;;;;13.94;67.46;100208.94;1790434;80;21549;-72
2023/10/30 08:02:50;;;;;;;14.87;5.50;;;;;;;13.98;67.54;100212.94;1790410;80;21098;-73
2023/10/30 08:05:21;;;;;;;12.13;6.50;;;;;;;14.01;67.35;100211.64;1790447;80;21148;-72
2023/10/30 08:07:50;;;;;;;9.75;4.70;;;;;;;14.04;67.34;100218.92;1790135;80;21145;-71
2023/10/30 08:10:19;;;;;;;11.18;4.75;;;;;;;14.10;67.25;100215.27;1790315;80;21110;-73
2023/10/30 08:12:48;;;;;;;11.70;6.45;;;;;;;14.18;66.90;100220.49;1790259;80;21565;-72
2023/10/30 08:15:18;;;;;;;11.15;4.72;;;;;;;14.27;66.43;100222.43;1790280;80;21550;-71
2023/10/30 08:17:47;;;;;;;8.45;4.25;;;;;;;14.34;65.78;100210.84;1790203;80;21569;-73
2023/10/30 08:20:16;;;;;;;7.87;4.70;;;;;;;14.42;65.49;100220.73;1790199;80;21192;-73
2023/10/30 08:22:45;;;;;;;9.65;4.35;;;;;;;14.49;65.06;100213.27;1790554;80;21585;-73
2023/10/30 08:25:14;;;;;;;9.63;4.47;;;;;;;14.54;65.02;100212.05;1790471;80;21114;-71
2023/10/30 08:27:43;;;;;;;10.50;4.50;;;;;;;14.57;65.04;100211.05;1790446;80;21117;-72
2023/10/30 08:30:14;;;;;;;8.60;4.10;;;;;;;14.61;65.29;100212.81;1790272;80;21141;-73
2023/10/30 08:32:43;;;;;;;9.93;4.40;;;;;;;14.64;65.09;100217.03;1790216;80;21177;-72
2023/10/30 08:35:12;;;;;;;12.40;4.58;;;;;;;14.67;64.79;100210.52;1790487;80;21118;-74
2023/10/30 08:37:41;;;;;;;13.38;4.72;;;;;;;14.72;64.64;100212.59;1790274;80;21117;-72
2023/10/30 08:40:12;;;;;;;14.13;4.87;;;;;;;14.74;64.56;100212.67;1790470;80;21146;-72
2023/10/30 08:42:41;;;;;;;11.38;4.60;;;;;;;14.78;64.54;100215.27;1790373;80;21142;-73
2023/10/30 08:45:11;;;;;;;5.65;3.90;;;;;;;14.82;64.53;100204.62;1790144;80;21413;-72
2023/10/30 08:47:40;;;;;;;10.35;4.20;;;;;;;14.85;64.31;100202.78;1790260;80;21118;-73
2023/10/30 08:50:10;;;;;;;9.58;4.05;;;;;;;14.89;63.89;100198.48;1790436;80;21193;-74
2023/10/30 08:52:39;;;;;;;11.45;4.30;;;;;;;14.93;63.99;100198.33;1790391;80;21549;-74
2023/10/30 08:55:08;;;;;;;7.83;4.03;;;;;;;14.97;63.54;100195.45;1790228;80;21130;-73
2023/10/30 08:57:37;;;;;;;19.67;4.60;;;;;;;15.04;63.63;100191.23;1790103;80;21101;-73
2023/10/30 09:00:07;;;;;;;11.28;4.33;;;;;;;15.10;63.36;100196.66;1790169;80;21146;-73
2023/10/30 09:02:36;;;;;;;11.15;3.85;;;;;;;15.15;63.14;100192.66;1790251;80;21149;-74
2023/10/30 09:05:07;;;;;;;8.00;3.90;;;;;;;15.21;62.94;100187.59;1790220;80;21616;-73
2023/10/30 09:07:37;;;;;;;7.85;3.50;;;;;;;15.27;62.51;100189.95;1790260;80;21094;-72
2023/10/30 09:10:06;;;;;;;13.62;4.00;;;;;;;15.33;62.34;100187.64;1782453;80;21533;-70
2023/10/30 09:12:36;;;;;;;15.25;3.90;;;;;;;15.41;62.35;100191.98;1768789;80;21200;-69
2023/10/30 09:15:08;;;;;;;8.08;3.35;;;;;;;15.46;62.37;100187.98;1747124;81;21110;-76
2023/10/30 09:17:38;;;;;;;6.65;3.77;;;;;;;15.53;61.96;100185.97;1741914;82;21121;-77
2023/10/30 09:20:12;;;;;;;11.12;4.75;;;;;;;15.63;61.39;100181.31;1732630;83;21098;-74
2023/10/30 09:22:41;;;;;;;11.90;4.22;;;;;;;15.70;61.11;100182.05;1740165;82;21155;-74
2023/10/30 09:25:10;;;;;;;9.53;3.87;;;;;;;15.77;60.90;100182.25;1740846;82;21131;-73
2023/10/30 09:27:40;;;;;;;10.53;3.55;;;;;;;15.85;61.09;100174.16;1740765;82;21155;-74
2023/10/30 09:30:11;;;;;;;7.33;3.62;;;;;;;15.94;60.37;100178.25;1740458;82;21142;-73
2023/10/30 09:32:41;;;;;;;8.30;3.70;;;;;;;16.07;59.55;100178.03;1740568;82;21177;-73
2023/10/30 09:35:11;;;;;;;7.05;3.87;;;;;;;16.17;59.20;100176.05;1740628;82;21145;-74
2023/10/30 09:37:40;;;;;;;7.20;3.70;;;;;;;16.28;58.64;100174.40;1740706;82;21615;-73
2023/10/30 09:40:12;;;;;;;8.05;3.62;;;;;;;16.33;58.30;100165.68;1740775;82;21615;-75
2023/10/30 09:42:53;;;;;;;7.03;3.52;;;;;;;16.40;58.34;100172.47;1740607;82;21627;-72
2023/10/30 09:45:26;;;;;;;10.85;4.90;;;;;;;16.44;58.09;100175.89;1740555;82;21584;-73
2023/10/30 09:47:56;;;;;;;8.83;3.50;;;;;;;16.48;57.74;100172.10;1740513;82;21150;-71
2023/10/30 09:50:26;;;;;;;9.58;3.27;;;;;;;16.48;57.69;100159.66;1740490;82;21163;-72
2023/10/30 09:52:56;;;;;;;9.30;3.90;;;;;;;16.49;57.50;100159.41;1740535;82;21135;-74
2023/10/30 09:55:28;;;;;;;10.00;3.70;;;;;;;16.50;57.81;100154.72;1740519;82;21147;-73
2023/10/30 09:57:57;;;;;;;7.72;3.80;;;;;;;16.52;57.54;100145.64;1740365;82;21154;-73
2023/10/30 10:00:26;;;;;;;7.03;3.72;;;;;;;16.56;57.39;100143.23;1740621;82;21155;-74
2023/10/30 10:02:55;;;;;;;6.03;3.47;;;;;;;16.60;57.70;100158.25;1740493;82;21190;-73
2023/10/30 10:05:25;;;;;;;8.30;3.50;;;;;;;16.64;57.56;100151.99;1740744;82;21134;-74
2023/10/30 10:07:54;;;;;;;7.20;3.65;;;;;;;16.67;57.49;100152.92;1740496;82;21566;-75
2023/10/30 10:10:24;;;;;;;10.08;4.50;;;;;;;16.70;56.48;100148.83;1690528;82;21139;-73
2023/10/30 10:12:55;;;;;;;9.35;3.58;;;;;;;16.74;56.92;100145.33;1739837;82;21198;-74
2023/10/30 10:15:25;;;;;;;6.40;3.35;;;;;;;16.79;56.97;100148.20;1713502;82;21163;-74
2023/10/30 10:17:56;;;;;;;7.20;3.40;;;;;;;16.88;56.60;100145.89;1739835;82;21166;-74
2023/10/30 10:20:27;;;;;;;8.50;3.45;;;;;;;16.96;56.73;100149.68;1736078;82;21167;-75
2023/10/30 10:22:56;;;;;;;7.60;3.40;;;;;;;17.01;56.49;100140.09;1709179;82;21149;-72
2023/10/30 10:25:25;;;;;;;11.83;3.80;;;;;;;17.07;56.26;100141.04;1693192;84;21586;-73
2023/10/30 10:27:54;;;;;;;11.35;3.65;;;;;;;17.10;56.41;100140.55;1709208;84;21593;-72
2023/10/30 10:30:25;;;;;;;6.03;3.22;;;;;;;17.14;56.00;100148.66;1716681;83;21585;-76
2023/10/30 10:32:54;;;;;;;8.25;3.85;;;;;;;17.19;55.91;100133.52;1708924;84;21146;-74
2023/10/30 10:35:23;;;;;;;10.43;3.55;;;;;;;17.21;55.70;100128.58;1693291;84;21171;-72
2023/10/30 10:38:09;;;;;;;10.60;3.87;;;;;;;17.23;55.23;100126.40;1709183;84;21193;-75
2023/10/30 10:40:38;;;;;;;8.88;3.40;;;;;;;17.27;55.31;100123.98;1709070;84;21601;-74
2023/10/30 10:43:08;;;;;;;8.08;3.67;;;;;;;17.26;55.69;100125.91;1693302;84;21193;-72
2023/10/30 10:45:39;;;;;;;7.28;3.20;;;;;;;17.28;55.29;100124.27;1708927;83;21141;-74
2023/10/30 10:48:09;;;;;;;8.98;3.75;;;;;;;17.36;54.80;100116.40;1708925;84;21149;-75
2023/10/30 10:50:38;;;;;;;9.05;3.55;;;;;;;17.40;55.01;100115.36;1709163;84;21153;-72
2023/10/30 10:53:08;;;;;;;8.20;3.62;;;;;;;17.41;54.75;100117.03;1709368;84;21034;-74
2023/10/30 10:55:48;;;;;;;7.17;3.52;;;;;;;17.45;54.78;100120.98;1709219;84;21082;-73
2023/10/30 10:58:41;;;;;;;9.43;3.58;;;;;;;17.46;54.99;100114.36;1709109;84;21463;-73
2023/10/30 11:01:12;;;;;;;9.03;3.62;;;;;;;17.45;54.99;100111.30;1709092;84;21062;-75
2023/10/30 11:03:45;;;;;;;9.28;3.80;;;;;;;17.45;55.04;100111.30;1709222;82;21070;-76
2023/10/30 11:06:22;;;;;;;8.88;3.65;;;;;;;17.44;55.32;100109.06;1709064;84;21087;-73
2023/10/30 11:08:58;;;;;;;8.90;3.95;;;;;;;17.43;55.44;100103.78;1709328;82;21153;-73
2023/10/30 11:11:45;;;;;;;6.65;3.98;;;;;;;17.48;55.42;100108.02;1709471;83;21118;-76
2023/10/30 11:14:48;;;;;;;8.85;3.55;;;;;;;17.52;55.68;100106.43;1709837;83;21082;-75
2023/10/30 11:17:20;;;;;;;7.45;3.80;;;;;;;17.53;55.52;100105.88;1709408;84;21086;-75
2023/10/30 11:19:49;;;;;;;8.95;3.50;;;;;;;17.57;54.96;100094.63;1718787;83;21223;-72
2023/10/30 11:22:41;;;;;;;6.65;3.20;;;;;;;17.59;54.97;100090.52;1722128;83;21084;-75
2023/10/30 11:25:41;;;;;;;5.97;3.33;;;;;;;17.63;54.82;100086.70;1723143;82;21012;-75
2023/10/30 11:28:12;;;;;;;6.17;3.35;;;;;;;17.67;54.71;100081.81;1676073;85;21098;-75
2023/10/30 11:30:42;;;;;;;6.87;3.37;;;;;;;17.70;54.70;100088.23;1713994;82;21096;-74
2023/10/30 11:33:23;;;;;;;7.15;3.40;;;;;;;17.74;54.59;100078.88;1723154;83;21120;-75